createdAt,value
2019-04-06T00:04:01.619Z,100.00
2019-04-06T00:06:31.270Z,100.00
2019-04-06T00:09:00.957Z,100.00
2019-04-06T00:11:44.081Z,100.00
2019-04-06T00:14:13.758Z,100.00
2019-04-06T00:16:46.903Z,100.00
2019-04-06T00:19:16.528Z,100.00
2019-04-06T00:21:46.218Z,100.00
2019-04-06T00:24:15.737Z,100.00
2019-04-06T00:26:57.638Z,100.00
2019-04-06T00:29:39.179Z,100.00
2019-04-06T00:32:28.718Z,100.00
2019-04-06T00:34:58.356Z,100.00
2019-04-06T00:37:27.840Z,100.00
2019-04-06T00:39:57.218Z,100.00
2019-04-06T00:42:26.792Z,100.00
2019-04-06T00:44:56.436Z,100.00
2019-04-06T00:47:25.942Z,100.00
2019-04-06T00:49:55.551Z,100.00
2019-04-06T00:52:27.099Z,100.00
2019-04-06T00:54:56.761Z,100.00
2019-04-06T00:57:26.142Z,100.00
2019-04-06T00:59:56.140Z,100.00
2019-04-06T01:02:25.471Z,100.00
2019-04-06T01:04:55.158Z,100.00
2019-04-06T01:07:25.169Z,100.00
2019-04-06T01:09:54.899Z,100.00
2019-04-06T01:12:24.582Z,100.00
2019-04-06T01:14:54.185Z,100.00
2019-04-06T01:17:23.871Z,100.00
2019-04-06T01:19:54.305Z,100.00
2019-04-06T01:22:42.953Z,100.00
2019-04-06T01:25:12.492Z,100.00
2019-04-06T01:27:41.884Z,100.00
2019-04-06T01:33:45.082Z,100.00
2019-04-06T01:36:14.750Z,100.00
2019-04-06T01:38:44.141Z,100.00
2019-04-06T01:41:13.820Z,100.00
2019-04-06T01:43:43.198Z,100.00
2019-04-06T01:46:12.866Z,100.00
2019-04-06T01:48:42.251Z,100.00
2019-04-06T01:51:12.353Z,100.00
2019-04-06T01:53:54.000Z,100.00
2019-04-06T01:56:23.393Z,100.00
2019-04-06T01:58:54.065Z,100.00
2019-04-06T02:04:19.254Z,100.00
2019-04-06T02:06:48.637Z,100.00
2019-04-06T02:09:37.433Z,100.00
2019-04-06T02:12:19.316Z,100.00
2019-04-06T02:14:49.007Z,100.00
2019-04-06T02:17:18.421Z,100.00
2019-04-06T02:19:47.993Z,100.00
2019-04-06T02:22:17.414Z,100.00
2019-04-06T02:24:47.138Z,100.00
2019-04-06T02:27:28.955Z,100.00
2019-04-06T02:30:12.376Z,100.00
2019-04-06T02:36:27.787Z,100.00
2019-04-06T02:39:35.799Z,100.00
2019-04-06T02:44:47.232Z,100.00
2019-04-06T02:47:17.294Z,100.00
2019-04-06T02:49:46.963Z,100.00
2019-04-06T02:52:16.341Z,100.00
2019-04-06T02:54:46.319Z,100.00
2019-04-06T02:57:29.260Z,100.00
2019-04-06T03:00:18.988Z,100.00
2019-04-06T03:02:50.067Z,100.00
2019-04-06T03:05:19.757Z,100.00
2019-04-06T03:10:45.033Z,100.00
2019-04-06T03:13:14.415Z,100.00
2019-04-06T03:15:44.147Z,100.00
2019-04-06T03:18:13.829Z,100.00
2019-04-06T03:20:43.199Z,100.00
2019-04-06T03:23:12.586Z,100.00
2019-04-06T03:25:54.418Z,100.00
2019-04-06T03:28:24.050Z,100.00
2019-04-06T03:33:55.428Z,100.00
2019-04-06T03:36:25.105Z,100.00
2019-04-06T03:38:54.942Z,100.00
2019-04-06T03:41:24.298Z,100.00
2019-04-06T03:43:54.819Z,100.00
2019-04-06T03:46:24.183Z,100.00
2019-04-06T03:48:54.465Z,100.00
2019-04-06T03:51:36.314Z,100.00
2019-04-06T03:54:26.640Z,100.00
2019-04-06T03:57:16.937Z,100.00
2019-04-06T03:59:55.621Z,100.00
2019-04-06T04:02:44.576Z,100.00
2019-04-06T04:05:14.280Z,100.00
2019-04-06T04:10:47.432Z,100.00
2019-04-06T04:13:48.167Z,100.00
2019-04-06T04:16:17.533Z,100.00
2019-04-06T04:18:47.214Z,100.00
2019-04-06T04:21:29.321Z,100.00
2019-04-06T04:23:58.714Z,100.00
2019-04-06T04:26:47.871Z,100.00
2019-04-06T04:29:17.252Z,100.00
2019-04-06T04:31:48.250Z,100.00
2019-04-06T04:34:17.472Z,100.00
2019-04-06T04:36:47.306Z,100.00
2019-04-06T04:39:16.769Z,100.00
2019-04-06T04:41:58.457Z,100.00
2019-04-06T04:44:40.497Z,100.00
2019-04-06T04:47:23.765Z,100.00
2019-04-06T04:50:07.497Z,100.00
2019-04-06T04:52:49.334Z,100.00
2019-04-06T04:55:31.120Z,99.58
2019-04-06T05:03:41.560Z,99.49
2019-04-06T05:06:10.973Z,100.00
2019-04-06T05:08:59.576Z,100.00
2019-04-06T05:11:29.232Z,100.00
2019-04-06T05:14:37.321Z,100.00
2019-04-06T05:17:27.988Z,100.00
2019-04-06T05:19:58.525Z,100.00
2019-04-06T05:22:49.014Z,100.00
2019-04-06T05:25:18.708Z,99.71
2019-04-06T05:28:00.826Z,99.62
2019-04-06T05:30:43.321Z,99.66
2019-04-06T05:33:12.663Z,99.74
2019-04-06T05:35:42.387Z,99.69
2019-04-06T05:38:11.758Z,99.66
2019-04-06T05:40:41.449Z,99.70
2019-04-06T05:43:30.259Z,99.83
2019-04-06T05:46:12.537Z,99.69
2019-04-06T05:48:41.979Z,99.61
2019-04-06T05:51:11.375Z,99.59
2019-04-06T05:53:53.095Z,99.40
2019-04-06T05:56:23.235Z,99.37
2019-04-06T06:02:10.746Z,99.15
2019-04-06T06:04:41.081Z,99.15
2019-04-06T06:07:17.078Z,99.00
2019-04-06T06:09:59.417Z,99.24
2019-04-06T06:12:42.274Z,99.24
2019-04-06T06:15:11.979Z,98.92
2019-04-06T06:17:41.707Z,98.86
2019-04-06T06:23:13.121Z,98.76
2019-04-06T06:26:02.443Z,98.69
2019-04-06T06:28:52.555Z,98.69
2019-04-06T06:31:24.469Z,97.96
2019-04-06T06:34:06.910Z,98.00
2019-04-06T06:36:36.503Z,98.00
2019-04-06T06:39:26.749Z,97.90
2019-04-06T06:41:56.158Z,98.03
2019-04-06T06:44:44.855Z,98.07
2019-04-06T06:47:14.251Z,97.12
2019-04-06T06:52:58.324Z,96.80
2019-04-06T06:55:40.149Z,96.52
2019-04-06T06:58:10.029Z,96.52
2019-04-06T07:00:39.446Z,96.36
2019-04-06T07:03:09.069Z,96.78
2019-04-06T07:06:19.022Z,96.99
2019-04-06T07:08:48.649Z,96.40
2019-04-06T07:11:37.147Z,96.22
2019-04-06T07:14:08.464Z,95.30
2019-04-06T07:16:38.037Z,94.70
2019-04-06T07:19:07.415Z,94.92
2019-04-06T07:21:36.867Z,94.17
2019-04-06T07:27:15.362Z,93.33
2019-04-06T07:29:44.933Z,92.86
2019-04-06T07:32:14.304Z,92.90
2019-04-06T07:34:44.168Z,92.08
2019-04-06T07:37:13.522Z,92.08
2019-04-06T07:39:42.908Z,91.24
2019-04-06T07:42:12.274Z,91.03
2019-04-06T07:45:01.270Z,92.01
2019-04-06T07:47:32.249Z,92.01
2019-04-06T07:50:01.632Z,89.92
2019-04-06T07:52:43.153Z,88.38
2019-04-06T07:55:24.936Z,86.69
2019-04-06T07:58:07.354Z,85.74
2019-04-06T08:00:37.021Z,85.14
2019-04-06T08:03:06.508Z,83.53
2019-04-06T08:05:55.480Z,83.47
2019-04-06T08:08:24.991Z,82.92
2019-04-06T08:13:55.459Z,81.93
2019-04-06T08:16:25.169Z,81.14
2019-04-06T08:18:55.470Z,81.04
2019-04-06T08:21:25.064Z,81.69
2019-04-06T08:23:55.368Z,81.21
2019-04-06T08:26:25.172Z,79.51
2019-04-06T08:29:01.968Z,79.53
2019-04-06T08:31:32.333Z,80.83
2019-04-06T08:36:42.414Z,81.95
2019-04-06T08:39:12.104Z,80.77
2019-04-06T08:41:41.472Z,81.29
2019-04-06T08:44:23.990Z,82.58
2019-04-06T08:46:53.365Z,82.76
2019-04-06T08:49:22.724Z,80.63
2019-04-06T08:51:52.158Z,81.98
2019-04-06T08:54:21.521Z,81.33
2019-04-06T08:56:51.085Z,79.39
2019-04-06T09:02:45.786Z,78.79
2019-04-06T09:05:27.985Z,78.07
2019-04-06T09:07:57.379Z,77.36
2019-04-06T09:10:26.752Z,77.35
2019-04-06T09:13:09.666Z,74.19
2019-04-06T09:15:39.245Z,73.83
2019-04-06T09:18:29.285Z,75.24
2019-04-06T09:20:58.664Z,75.69
2019-04-06T09:23:28.111Z,77.35
2019-04-06T09:25:57.504Z,75.59
2019-04-06T09:28:27.237Z,76.66
2019-04-06T09:31:09.191Z,74.59
2019-04-06T09:33:51.184Z,75.91
2019-04-06T09:36:20.899Z,75.51
2019-04-06T09:38:50.277Z,75.21
2019-04-06T09:41:19.671Z,73.47
2019-04-06T09:43:49.326Z,71.88
2019-04-06T09:46:37.877Z,71.11
2019-04-06T09:49:28.310Z,69.94
2019-04-06T09:52:16.831Z,69.54
2019-04-06T09:55:05.470Z,70.21
2019-04-06T10:03:26.663Z,69.22
2019-04-06T10:09:11.389Z,68.73
2019-04-06T10:12:12.702Z,68.47
2019-04-06T10:15:01.579Z,67.24
2019-04-06T10:23:31.471Z,66.92
2019-04-06T10:26:39.368Z,66.26
2019-04-06T10:29:48.250Z,64.87
2019-04-06T10:32:43.367Z,63.48
2019-04-06T10:35:44.029Z,64.35
2019-04-06T10:38:33.281Z,65.44
2019-04-06T10:44:30.993Z,64.02
2019-04-06T10:47:19.956Z,63.01
2019-04-06T10:52:47.630Z,61.88
2019-04-06T10:55:36.139Z,61.90
2019-04-06T10:58:36.934Z,60.05
2019-04-06T11:01:26.240Z,59.46
2019-04-06T11:07:10.941Z,60.50
2019-04-06T11:09:59.698Z,60.96
2019-04-06T11:12:48.142Z,60.70
2019-04-06T11:15:51.694Z,59.92
2019-04-06T11:18:52.491Z,59.57
2019-04-06T11:21:36.433Z,60.44
2019-04-06T11:24:37.085Z,61.04
2019-04-06T11:27:25.820Z,59.00
2019-04-06T11:30:15.407Z,59.00
2019-04-06T11:33:16.413Z,58.49
2019-04-06T11:39:05.832Z,57.84
2019-04-06T11:41:55.450Z,57.38
2019-04-06T11:44:56.196Z,57.59
2019-04-06T11:47:45.923Z,57.30
2019-04-06T11:50:34.953Z,56.92
2019-04-06T11:53:21.121Z,58.07
2019-04-06T11:56:09.800Z,59.04
2019-04-06T11:58:58.304Z,58.29
2019-04-06T12:01:47.035Z,57.45
2019-04-06T12:04:36.060Z,58.82
2019-04-06T12:07:38.056Z,58.20
2019-04-06T12:10:27.134Z,58.40
2019-04-06T12:13:15.953Z,56.24
2019-04-06T12:16:04.789Z,56.00
2019-04-06T12:18:53.282Z,54.35
2019-04-06T12:21:36.470Z,55.94
2019-04-06T12:24:37.982Z,56.65
2019-04-06T12:33:23.127Z,58.24
2019-04-06T12:36:11.876Z,57.44
2019-04-06T12:39:00.655Z,55.13
2019-04-06T12:41:50.915Z,55.68
2019-04-06T12:44:52.224Z,56.03
2019-04-06T12:47:37.487Z,54.75
2019-04-06T12:50:24.207Z,54.89
2019-04-06T12:53:25.165Z,54.07
2019-04-06T12:56:15.486Z,52.75
2019-04-06T13:02:17.076Z,53.44
2019-04-06T13:07:44.873Z,52.24
2019-04-06T13:10:33.652Z,53.19
2019-04-06T13:16:18.469Z,52.04
2019-04-06T13:19:06.984Z,51.84
2019-04-06T13:21:47.419Z,51.46
2019-04-06T13:24:36.016Z,52.43
2019-04-06T13:27:19.764Z,52.74
2019-04-06T13:30:08.290Z,54.44
2019-04-06T13:32:57.726Z,54.07
2019-04-06T13:38:27.727Z,55.73
2019-04-06T13:41:16.519Z,54.92
2019-04-06T13:47:02.129Z,54.11
2019-04-06T13:49:50.791Z,53.46
2019-04-06T13:52:39.199Z,53.06
2019-04-06T13:55:27.999Z,52.84
2019-04-06T14:04:40.325Z,53.14
2019-04-06T14:07:29.321Z,53.02
2019-04-06T14:10:18.113Z,53.20
2019-04-06T14:13:06.944Z,53.41
2019-04-06T14:21:15.429Z,50.91
2019-04-06T14:24:04.138Z,51.64
2019-04-06T14:27:05.653Z,51.33
2019-04-06T14:29:54.183Z,51.51
2019-04-06T14:35:38.142Z,51.66
2019-04-06T14:38:47.936Z,51.08
2019-04-06T14:41:36.445Z,51.08
2019-04-06T14:47:48.224Z,52.75
2019-04-06T14:50:36.705Z,50.42
2019-04-06T14:53:25.198Z,51.64
2019-04-06T14:56:15.390Z,51.70
2019-04-06T14:59:06.406Z,51.86
2019-04-06T15:04:35.689Z,50.88
2019-04-06T15:10:26.747Z,52.67
2019-04-06T15:13:15.739Z,52.68
2019-04-06T15:19:13.974Z,51.44
2019-04-06T15:22:02.441Z,51.24
2019-04-06T15:27:47.470Z,52.35
2019-04-06T15:30:36.335Z,52.31
2019-04-06T15:33:25.557Z,51.81
2019-04-06T15:36:15.591Z,52.44
2019-04-06T15:39:16.710Z,51.68
2019-04-06T15:44:45.153Z,52.67
2019-04-06T15:50:13.058Z,53.32
2019-04-06T15:53:01.583Z,54.19
2019-04-06T15:55:50.273Z,54.95
2019-04-06T15:58:38.788Z,53.78
2019-04-06T16:01:27.569Z,53.06
2019-04-06T16:07:42.000Z,53.06
2019-04-06T16:10:29.587Z,53.93
2019-04-06T16:18:55.273Z,54.21
2019-04-06T16:21:43.770Z,54.61
2019-04-06T16:30:09.582Z,54.08
2019-04-06T16:32:58.259Z,54.48
2019-04-06T16:38:42.286Z,55.13
2019-04-06T16:41:31.301Z,56.07
2019-04-06T16:44:14.725Z,57.14
2019-04-06T16:47:16.377Z,56.41
2019-04-06T16:58:59.380Z,57.48
2019-04-06T17:01:48.184Z,57.93
2019-04-06T17:04:36.700Z,56.80
2019-04-06T17:07:25.482Z,57.45
2019-04-06T17:10:13.996Z,57.47
2019-04-06T17:13:02.796Z,57.83
2019-04-06T17:15:51.430Z,58.61
2019-04-06T17:18:40.009Z,58.74
2019-04-06T17:21:48.029Z,58.81
2019-04-06T17:24:36.357Z,58.56
2019-04-06T17:27:19.955Z,58.27
2019-04-06T17:30:21.047Z,58.03
2019-04-06T17:33:09.975Z,58.02
2019-04-06T17:39:27.928Z,58.41
2019-04-06T17:45:31.444Z,58.56
2019-04-06T17:48:21.781Z,59.49
2019-04-06T17:51:10.590Z,59.91
2019-04-06T17:54:12.143Z,60.11
2019-04-06T17:57:13.305Z,60.35
2019-04-06T18:00:02.891Z,60.52
2019-04-06T18:02:51.887Z,60.54
2019-04-06T18:08:40.347Z,60.77
2019-04-06T18:11:24.189Z,60.89
2019-04-06T18:16:49.425Z,61.08
2019-04-06T18:19:31.368Z,61.18
2019-04-06T18:22:14.799Z,61.31
2019-04-06T18:24:44.428Z,61.31
2019-04-06T18:27:14.235Z,61.46
2019-04-06T18:29:55.779Z,61.69
2019-04-06T18:32:39.547Z,61.89
2019-04-06T18:40:44.883Z,62.35
2019-04-06T18:43:14.389Z,62.53
2019-04-06T18:45:43.771Z,62.70
2019-04-06T18:54:05.200Z,63.28
2019-04-06T18:56:54.883Z,63.60
2019-04-06T18:59:37.467Z,63.90
2019-04-06T19:02:06.986Z,64.07
2019-04-06T19:04:36.505Z,64.18
2019-04-06T19:07:18.604Z,64.33
2019-04-06T19:10:00.748Z,64.50
2019-04-06T19:12:43.067Z,64.65
2019-04-06T19:15:12.795Z,64.80
2019-04-06T19:17:42.167Z,64.97
2019-04-06T19:20:32.776Z,65.14
2019-04-06T19:23:02.636Z,65.34
2019-04-06T19:28:55.334Z,65.61
2019-04-06T19:31:31.722Z,65.59
2019-04-06T19:34:21.044Z,65.59
2019-04-06T19:37:03.645Z,66.56
2019-04-06T19:39:34.487Z,66.56
2019-04-06T19:42:16.224Z,66.58
2019-04-06T19:44:58.363Z,66.77
2019-04-06T19:47:39.609Z,66.96
2019-04-06T19:50:24.151Z,67.13
2019-04-06T19:52:53.932Z,67.22
2019-04-06T19:55:23.610Z,67.31
2019-04-06T19:57:52.991Z,67.42
2019-04-06T20:03:39.525Z,67.58
2019-04-06T20:06:19.017Z,67.68
2019-04-06T20:08:48.940Z,67.80
2019-04-06T20:11:31.175Z,67.89
2019-04-06T20:14:14.529Z,68.06
2019-04-06T20:16:56.515Z,68.20
2019-04-06T20:19:38.421Z,68.39
2019-04-06T20:22:08.094Z,68.52
2019-04-06T20:24:37.846Z,68.64
2019-04-06T20:27:07.221Z,68.81
2019-04-06T20:29:48.847Z,68.91
2019-04-06T20:32:18.715Z,69.16
2019-04-06T20:34:54.865Z,69.10
2019-04-06T20:37:24.236Z,68.95
2019-04-06T20:39:54.262Z,68.91
2019-04-06T20:42:31.403Z,68.95
2019-04-06T20:45:47.118Z,69.04
2019-04-06T20:48:16.750Z,69.12
2019-04-06T20:50:46.188Z,69.25
2019-04-06T20:53:15.804Z,69.38
2019-04-06T20:55:46.281Z,69.54
2019-04-06T20:58:23.040Z,69.64
2019-04-06T21:00:52.930Z,69.74
2019-04-06T21:03:42.882Z,69.82
2019-04-06T21:06:25.075Z,69.90
2019-04-06T21:09:08.928Z,70.11
2019-04-06T21:11:50.405Z,70.11
2019-04-06T21:14:32.570Z,70.21
2019-04-06T21:17:02.581Z,70.40
2019-04-06T21:19:32.395Z,70.57
2019-04-06T21:22:02.997Z,70.70
2019-04-06T21:24:32.870Z,70.75
2019-04-06T21:27:22.842Z,70.89
2019-04-06T21:29:52.830Z,71.04
2019-04-06T21:32:42.507Z,71.17
2019-04-06T21:35:12.563Z,71.32
2019-04-06T21:38:02.660Z,71.46
2019-04-06T21:40:32.993Z,71.62
2019-04-06T21:43:09.569Z,71.79
2019-04-06T21:45:39.313Z,71.95
2019-04-06T21:48:41.316Z,72.10
2019-04-06T21:51:23.350Z,72.30
2019-04-06T21:54:04.968Z,72.63
2019-04-06T21:56:46.900Z,72.91
2019-04-06T21:59:28.993Z,73.13
2019-04-06T22:01:59.082Z,73.31
2019-04-06T22:04:54.941Z,73.46
2019-04-06T22:07:24.331Z,73.58
2019-04-06T22:09:53.994Z,73.57
2019-04-06T22:12:23.925Z,73.56
2019-04-06T22:15:05.885Z,73.57
2019-04-06T22:17:35.978Z,73.56
2019-04-06T22:20:28.153Z,73.58
2019-04-06T22:23:08.294Z,73.73
2019-04-06T22:25:44.884Z,73.81
2019-04-06T22:28:21.009Z,73.86
2019-04-06T22:30:50.842Z,73.88
2019-04-06T22:33:41.284Z,73.92
2019-04-06T22:36:10.934Z,74.00
2019-04-06T22:38:40.315Z,74.04
2019-04-06T22:41:09.974Z,74.14
2019-04-06T22:43:53.092Z,74.23
2019-04-06T22:46:22.450Z,74.29
2019-04-06T22:51:48.274Z,74.48
2019-04-06T22:54:24.094Z,74.54
2019-04-06T22:57:06.317Z,74.65
2019-04-06T22:59:35.692Z,74.87
2019-04-06T23:05:41.506Z,75.03
2019-04-06T23:08:11.175Z,75.13
2019-04-06T23:10:40.915Z,75.16
2019-04-06T23:13:17.703Z,75.12
2019-04-06T23:15:54.287Z,75.06
2019-04-06T23:18:31.140Z,74.96
2019-04-06T23:21:00.867Z,74.88
2019-04-06T23:23:30.406Z,74.82
2019-04-06T23:26:19.116Z,74.73
2019-04-06T23:28:49.035Z,74.55
2019-04-06T23:31:38.672Z,74.39
2019-04-06T23:34:08.918Z,74.24
2019-04-06T23:36:45.297Z,76.95
2019-04-06T23:39:14.781Z,79.14
2019-04-06T23:41:44.901Z,79.45
2019-04-06T23:44:21.219Z,75.74
2019-04-06T23:46:57.677Z,74.15
2019-04-06T23:49:27.583Z,72.76
2019-04-06T23:51:57.793Z,72.18
2019-04-06T23:54:27.272Z,72.57
2019-04-06T23:56:57.962Z,72.67
2019-04-06T23:59:46.391Z,72.77
